UUBP

Bryansk Airport

Bryansk, Russian Federation
TAF UUBP 151100Z 1512/1521 10005MPS 9999 SCT025
Issued Valid From Valid To
Nov-15 @ 11:00 UTC
(2 hours ago)
Nov-15 @ 12:00 UTC
(42 minutes ago)
Nov-15 @ 21:00 UTC
(in 8 hours)
Nov-15 @ 12:00 to Nov-15 @ 21:00
TAF UUBP 151100Z 1512/1521 10005MPS 9999 SCT025
Wind Visibility Clouds
100° at 10 knots 10,000+ meters
  • Scattered at 2,500' AGL
TAF UUBP 151100Z 1512/1521 10005MPS 9999 SCT025
Issued Nov-15 @ 11:00 UTC
(2 hours ago)
Valid From Nov-15 @ 12:00 UTC
(42 minutes ago)
Valid To Nov-15 @ 21:00 UTC
(in 8 hours)
Nov-15 @ 12:00 - Nov-15 @ 21:00
Wind Visibility
100° at 10 knots 10,000+ meters
Clouds
  • Scattered at 2,500' AGL